Terminal Aerodrome Forecast
Issued by NWS Central Illinois

Home | Current Version | Previous Version | Text Only | Print | Product List | Glossary On
Versions: 1 2 3 4 5 6 7 8 9 10 11 12 13 14 15 16 17 18 19 20 21 22 23 24 25 26 27 28
000
FTUS43 KILX 302338
TAFPIA
TAF
KPIA 302338Z 0100/0124 06011KT 3SM BR VCSH OVC008
      TEMPO 0100/0102 2SM -RA BR OVC004
     FM010400 06008KT 3SM BR OVC003
      TEMPO 0108/0112 1/2SM FG
     FM011200 04006KT P6SM VCSH OVC003
     FM011700 03007KT P6SM VCSH OVC008
     FM011900 01008KT P6SM VCSH OVC015=

USA.gov is the U.S. government's official web portal to all federal, state and local government web resources and services.